createdAt,value
2019-04-30T00:01:07.505Z,9.10
2019-04-30T00:03:50.509Z,9.10
2019-04-30T00:06:27.350Z,9.10
2019-04-30T00:08:57.605Z,9.20
2019-04-30T00:11:31.052Z,9.20
2019-04-30T00:14:05.664Z,9.20
2019-04-30T00:16:40.038Z,9.10
2019-04-30T00:19:17.866Z,9.00
2019-04-30T00:21:50.034Z,9.00
2019-04-30T00:24:20.429Z,9.10
2019-04-30T00:26:55.123Z,9.10
2019-04-30T00:29:30.823Z,9.10
2019-04-30T00:32:04.426Z,9.20
2019-04-30T00:34:39.289Z,9.20
2019-04-30T00:37:13.986Z,9.20
2019-04-30T00:39:44.427Z,9.30
2019-04-30T00:42:23.959Z,9.30
2019-04-30T00:44:50.371Z,9.30
2019-04-30T00:47:25.688Z,9.20
2019-04-30T00:50:00.284Z,9.30
2019-04-30T00:52:33.994Z,9.20
2019-04-30T00:55:08.904Z,9.20
2019-04-30T00:57:43.560Z,9.20
2019-04-30T01:00:19.730Z,9.20
2019-04-30T01:02:53.370Z,9.20
2019-04-30T01:05:27.154Z,9.20
2019-04-30T01:08:00.731Z,9.20
2019-04-30T01:10:34.881Z,9.30
2019-04-30T01:13:11.993Z,9.20
2019-04-30T01:15:43.961Z,9.30
2019-04-30T01:18:16.291Z,9.20
2019-04-30T01:20:49.879Z,9.40
2019-04-30T01:23:23.594Z,9.40
2019-04-30T01:25:58.593Z,9.50
2019-04-30T01:28:31.883Z,9.40
2019-04-30T01:31:05.490Z,9.40
2019-04-30T01:33:39.280Z,9.40
2019-04-30T01:36:13.463Z,9.40
2019-04-30T01:38:49.051Z,9.20
2019-04-30T01:41:27.354Z,9.20
2019-04-30T01:43:55.425Z,9.20
2019-04-30T01:46:29.214Z,9.20
2019-04-30T01:49:02.723Z,9.30
2019-04-30T01:51:36.324Z,9.20
2019-04-30T01:54:13.819Z,9.10
2019-04-30T01:56:54.334Z,9.10
2019-04-30T01:59:29.149Z,9.10
2019-04-30T02:02:02.948Z,9.10
2019-04-30T02:04:36.586Z,9.10
2019-04-30T02:07:10.222Z,9.10
2019-04-30T02:09:43.744Z,9.20
2019-04-30T02:12:19.722Z,9.20
2019-04-30T02:14:51.842Z,9.20
2019-04-30T02:17:24.771Z,9.20
2019-04-30T02:19:59.318Z,9.20
2019-04-30T02:22:32.201Z,9.20
2019-04-30T02:25:05.985Z,9.20
2019-04-30T02:27:39.554Z,9.20
2019-04-30T02:30:13.272Z,9.30
2019-04-30T02:32:49.579Z,9.30
2019-04-30T02:35:23.474Z,9.40
2019-04-30T02:38:03.016Z,9.40
2019-04-30T02:40:36.642Z,9.40
2019-04-30T02:43:10.345Z,9.50
2019-04-30T02:45:44.024Z,9.50
2019-04-30T02:48:19.451Z,9.60
2019-04-30T02:50:52.233Z,9.50
2019-04-30T02:53:40.223Z,9.50
2019-04-30T02:56:13.045Z,9.40
2019-04-30T02:58:46.819Z,9.50
2019-04-30T03:01:20.652Z,9.50
2019-04-30T03:03:54.189Z,9.50
2019-04-30T03:06:30.370Z,9.50
2019-04-30T03:09:01.515Z,9.50
2019-04-30T03:11:35.054Z,9.50
2019-04-30T03:14:10.360Z,9.50
2019-04-30T03:16:46.212Z,9.50
2019-04-30T03:19:22.664Z,9.60
2019-04-30T03:21:59.997Z,9.50
2019-04-30T03:24:31.051Z,9.50
2019-04-30T03:27:04.839Z,9.60
2019-04-30T03:29:40.536Z,9.50
2019-04-30T03:32:13.858Z,9.50
2019-04-30T03:34:46.021Z,9.40
2019-04-30T03:37:20.496Z,9.50
2019-04-30T03:39:54.127Z,9.50
2019-04-30T03:42:29.549Z,9.60
2019-04-30T03:45:01.546Z,9.60
2019-04-30T03:47:35.327Z,9.50
2019-04-30T03:50:09.423Z,9.50
2019-04-30T03:52:42.983Z,9.40
2019-04-30T03:55:16.640Z,9.40
2019-04-30T03:57:51.896Z,9.50
2019-04-30T04:00:30.584Z,9.50
2019-04-30T04:03:04.317Z,9.60
2019-04-30T04:05:39.960Z,9.70
2019-04-30T04:08:16.369Z,9.70
2019-04-30T04:10:52.940Z,9.70
2019-04-30T04:13:25.138Z,9.70
2019-04-30T04:15:59.989Z,9.70
2019-04-30T04:18:32.923Z,9.60
2019-04-30T04:21:11.564Z,9.70
2019-04-30T04:23:40.164Z,9.70
2019-04-30T04:26:13.764Z,9.80
2019-04-30T04:28:49.645Z,9.80
2019-04-30T04:31:21.611Z,9.90
2019-04-30T04:33:55.309Z,9.90
2019-04-30T04:36:30.222Z,9.80
2019-04-30T04:39:02.536Z,9.80
2019-04-30T04:41:36.207Z,9.80
2019-04-30T04:44:12.923Z,9.80
2019-04-30T04:46:43.987Z,9.80
2019-04-30T04:49:20.023Z,9.90
2019-04-30T04:51:52.164Z,9.90
2019-04-30T04:54:26.716Z,9.90
2019-04-30T04:57:14.008Z,9.90
2019-04-30T04:59:34.149Z,9.90
2019-04-30T05:02:13.355Z,9.90
2019-04-30T05:04:49.111Z,10.00
2019-04-30T05:07:21.426Z,10.00
2019-04-30T05:09:55.093Z,10.00
2019-04-30T05:12:29.738Z,10.10
2019-04-30T05:15:02.482Z,10.10
2019-04-30T05:17:36.895Z,10.10
2019-04-30T05:20:10.651Z,10.10
2019-04-30T05:22:44.368Z,10.10
2019-04-30T05:25:18.785Z,10.30
2019-04-30T05:27:52.769Z,10.40
2019-04-30T05:30:26.382Z,10.40
2019-04-30T05:32:59.924Z,10.50
2019-04-30T05:35:33.587Z,10.60
2019-04-30T05:38:09.173Z,10.60
2019-04-30T05:40:42.549Z,10.60
2019-04-30T05:43:14.407Z,10.70
2019-04-30T05:45:53.723Z,10.80
2019-04-30T05:51:39.452Z,10.70
2019-04-30T05:54:26.400Z,10.60
2019-04-30T05:57:09.672Z,10.60
2019-04-30T05:59:56.245Z,10.50
2019-04-30T06:02:44.902Z,10.50
2019-04-30T06:05:32.485Z,10.50
2019-04-30T06:08:29.176Z,10.50
2019-04-30T06:11:15.660Z,10.50
2019-04-30T06:14:06.360Z,10.50
2019-04-30T06:16:46.534Z,10.50
2019-04-30T06:25:45.868Z,10.50
2019-04-30T06:28:29.236Z,10.60
2019-04-30T06:31:11.385Z,10.60
2019-04-30T06:33:55.263Z,10.60
2019-04-30T06:36:36.101Z,10.60
2019-04-30T06:39:18.775Z,10.70
2019-04-30T06:42:06.486Z,10.70
2019-04-30T06:47:38.783Z,10.70
2019-04-30T06:50:21.036Z,10.80
2019-04-30T06:53:01.348Z,10.80
2019-04-30T06:55:43.437Z,10.80
2019-04-30T06:58:28.983Z,10.80
2019-04-30T07:01:09.517Z,10.80
2019-04-30T07:06:37.067Z,10.70
2019-04-30T07:09:43.643Z,10.80
2019-04-30T07:12:27.083Z,10.80
2019-04-30T07:15:08.842Z,10.80
2019-04-30T07:17:49.184Z,10.80
2019-04-30T07:20:29.164Z,10.90
2019-04-30T07:23:10.104Z,10.90
2019-04-30T07:25:55.574Z,10.90
2019-04-30T07:28:44.619Z,10.60
2019-04-30T07:31:14.698Z,10.60
2019-04-30T07:33:50.735Z,10.70
2019-04-30T07:36:19.722Z,10.70
2019-04-30T07:38:56.459Z,10.80
2019-04-30T07:41:30.796Z,10.80
2019-04-30T07:44:01.102Z,10.80
2019-04-30T07:46:35.189Z,10.80
2019-04-30T07:49:10.076Z,10.90
2019-04-30T07:51:42.535Z,10.80
2019-04-30T07:54:15.597Z,10.80
2019-04-30T07:56:50.657Z,10.70
2019-04-30T07:59:23.636Z,10.80
2019-04-30T08:02:07.630Z,10.70
2019-04-30T08:18:02.784Z,10.70
2019-04-30T08:20:26.735Z,10.70
2019-04-30T08:23:13.357Z,10.70
2019-04-30T08:25:34.021Z,10.70
2019-04-30T08:28:09.148Z,10.70
2019-04-30T08:30:43.042Z,10.70
2019-04-30T08:33:16.835Z,10.70
2019-04-30T08:35:50.356Z,10.80
2019-04-30T08:38:24.049Z,10.70
2019-04-30T08:40:58.840Z,10.70
2019-04-30T08:43:31.491Z,10.80
2019-04-30T08:46:05.080Z,10.90
2019-04-30T08:48:49.921Z,11.00
2019-04-30T08:51:13.877Z,11.00
2019-04-30T08:53:46.234Z,11.10
2019-04-30T08:56:21.981Z,11.10
2019-04-30T08:58:54.939Z,11.20
2019-04-30T09:01:29.402Z,11.20
2019-04-30T09:04:01.915Z,11.10
2019-04-30T09:06:35.630Z,11.10
2019-04-30T09:09:10.957Z,11.10
2019-04-30T09:11:51.637Z,11.10
2019-04-30T09:14:18.539Z,11.00
2019-04-30T09:16:51.344Z,11.00
2019-04-30T09:19:23.907Z,11.00
2019-04-30T09:21:59.053Z,11.00
2019-04-30T09:24:31.206Z,11.00
2019-04-30T09:27:04.661Z,11.00
2019-04-30T09:29:39.147Z,11.10
2019-04-30T09:32:12.024Z,11.10
2019-04-30T09:34:45.685Z,11.00
2019-04-30T09:37:19.264Z,11.00
2019-04-30T09:39:52.894Z,11.10
2019-04-30T09:42:26.505Z,11.20
2019-04-30T09:45:00.189Z,11.10
2019-04-30T09:47:33.715Z,11.20
2019-04-30T09:50:09.019Z,11.30
2019-04-30T09:52:41.180Z,11.30
2019-04-30T09:55:14.728Z,11.30
2019-04-30T09:57:48.888Z,11.40
2019-04-30T10:00:22.929Z,11.60
2019-04-30T10:02:57.298Z,11.50
2019-04-30T10:05:31.512Z,11.50
2019-04-30T10:08:03.874Z,11.50
2019-04-30T10:10:38.774Z,11.50
2019-04-30T10:13:12.561Z,11.60
2019-04-30T10:15:50.823Z,11.60
2019-04-30T10:18:24.516Z,11.70
2019-04-30T10:20:58.913Z,11.70
2019-04-30T10:23:31.769Z,11.80
2019-04-30T10:26:05.531Z,11.80
2019-04-30T10:28:39.108Z,12.00
2019-04-30T10:31:12.740Z,12.10
2019-04-30T10:33:48.438Z,12.20
2019-04-30T10:36:20.176Z,12.20
2019-04-30T10:38:54.637Z,12.40
2019-04-30T10:41:28.948Z,12.30
2019-04-30T10:44:02.089Z,12.40
2019-04-30T10:46:35.735Z,12.50
2019-04-30T10:49:09.281Z,12.50
2019-04-30T10:51:43.125Z,12.40
2019-04-30T10:54:24.098Z,12.50
2019-04-30T10:56:51.351Z,12.50
2019-04-30T10:59:24.284Z,12.60
2019-04-30T11:01:59.212Z,12.90
2019-04-30T11:04:31.467Z,13.20
2019-04-30T11:07:05.055Z,13.20
2019-04-30T11:09:39.489Z,12.90
2019-04-30T11:12:12.844Z,13.10
2019-04-30T11:14:46.472Z,13.10
2019-04-30T11:17:21.013Z,13.10
2019-04-30T11:19:55.412Z,13.50
2019-04-30T11:22:28.941Z,13.50
2019-04-30T11:25:03.391Z,16.10
2019-04-30T11:27:37.311Z,16.10
2019-04-30T11:30:20.390Z,17.70
2019-04-30T11:32:45.430Z,17.60
2019-04-30T11:35:20.721Z,17.70
2019-04-30T11:37:52.818Z,16.90
2019-04-30T11:40:34.531Z,16.60
2019-04-30T11:43:01.367Z,16.60
2019-04-30T11:59:19.960Z,14.90
2019-04-30T12:01:53.774Z,14.90
2019-04-30T12:04:29.855Z,15.50
2019-04-30T12:07:16.822Z,15.50
2019-04-30T12:10:01.217Z,15.70
2019-04-30T12:12:34.849Z,15.50
2019-04-30T12:15:09.318Z,15.30
2019-04-30T12:17:42.759Z,15.80
2019-04-30T12:20:16.477Z,15.80
2019-04-30T12:22:50.119Z,15.90
2019-04-30T12:25:23.808Z,16.00
2019-04-30T12:27:59.493Z,15.90
2019-04-30T12:30:31.039Z,16.00
2019-04-30T12:33:05.527Z,16.20
2019-04-30T12:35:39.116Z,16.10
2019-04-30T12:38:12.650Z,16.20
2019-04-30T12:40:46.385Z,16.20
2019-04-30T12:43:19.958Z,16.30
2019-04-30T12:46:02.649Z,16.60
2019-04-30T12:48:44.380Z,16.70
2019-04-30T12:51:23.722Z,16.70
2019-04-30T12:54:01.109Z,16.80
2019-04-30T12:56:40.518Z,16.50
2019-04-30T12:59:14.243Z,16.50
2019-04-30T13:01:49.563Z,16.40
2019-04-30T13:04:21.603Z,16.30
2019-04-30T13:06:55.925Z,16.10
2019-04-30T13:09:30.310Z,16.10
2019-04-30T13:12:03.524Z,16.20
2019-04-30T13:14:50.313Z,16.10
2019-04-30T13:17:10.283Z,16.20
2019-04-30T13:19:44.883Z,16.30
2019-04-30T13:43:40.180Z,17.20
2019-04-30T13:46:12.288Z,17.10
2019-04-30T13:48:45.968Z,16.80
2019-04-30T13:51:19.715Z,16.70
2019-04-30T13:53:53.355Z,16.40
2019-04-30T13:56:28.733Z,16.50
2019-04-30T13:59:00.582Z,16.60
2019-04-30T14:01:34.318Z,16.80
2019-04-30T14:04:23.887Z,16.70
2019-04-30T14:07:04.078Z,16.40
2019-04-30T14:09:38.491Z,16.30
2019-04-30T14:12:12.198Z,16.30
2019-04-30T14:14:46.010Z,16.30
2019-04-30T14:17:19.607Z,16.30
2019-04-30T14:19:53.241Z,16.40
2019-04-30T14:22:26.966Z,16.60
2019-04-30T14:25:00.831Z,16.60
2019-04-30T14:27:34.493Z,16.70
2019-04-30T14:30:09.336Z,16.40
2019-04-30T14:32:43.448Z,16.40
2019-04-30T14:35:18.691Z,16.40
2019-04-30T14:37:51.773Z,16.40
2019-04-30T14:40:25.998Z,16.50
2019-04-30T14:43:10.033Z,16.30
2019-04-30T14:45:52.955Z,16.30
2019-04-30T14:48:32.085Z,16.30
2019-04-30T14:51:05.406Z,15.80
2019-04-30T14:53:41.659Z,15.90
2019-04-30T14:56:16.988Z,15.30
2019-04-30T14:58:56.375Z,15.30
2019-04-30T15:01:35.696Z,15.40
2019-04-30T15:04:09.524Z,15.50
2019-04-30T15:06:43.985Z,15.70
2019-04-30T15:09:17.626Z,15.60
2019-04-30T15:11:51.367Z,15.70
2019-04-30T15:14:25.928Z,15.70
2019-04-30T15:16:59.569Z,15.70
2019-04-30T15:19:33.730Z,15.70
2019-04-30T15:22:09.127Z,15.70
2019-04-30T15:24:41.247Z,15.60
2019-04-30T15:27:14.837Z,15.50
2019-04-30T15:29:56.611Z,15.60
2019-04-30T15:32:22.370Z,15.50
2019-04-30T15:34:56.023Z,15.60
2019-04-30T15:37:29.724Z,15.60
2019-04-30T15:40:03.472Z,15.60
2019-04-30T15:42:38.090Z,15.60
2019-04-30T15:45:11.875Z,15.60
2019-04-30T15:47:46.445Z,15.60
2019-04-30T15:50:20.248Z,15.50
2019-04-30T15:52:53.839Z,15.50
2019-04-30T15:55:27.441Z,15.50
2019-04-30T16:00:56.016Z,15.40
2019-04-30T16:03:32.309Z,15.40
2019-04-30T16:06:05.891Z,15.40
2019-04-30T16:08:39.473Z,15.40
2019-04-30T16:11:13.935Z,15.40
2019-04-30T16:13:53.226Z,15.50
2019-04-30T16:16:27.767Z,15.60
2019-04-30T16:19:01.523Z,15.60
2019-04-30T16:21:35.122Z,15.70
2019-04-30T16:24:09.654Z,15.70
2019-04-30T16:26:49.548Z,15.70
2019-04-30T16:29:17.207Z,15.70
2019-04-30T16:31:50.759Z,15.70
2019-04-30T16:34:24.387Z,15.60
2019-04-30T16:36:58.999Z,15.70
2019-04-30T16:39:32.024Z,15.60
2019-04-30T16:42:05.872Z,15.70
2019-04-30T16:44:39.720Z,15.70
2019-04-30T16:47:16.645Z,15.60
2019-04-30T16:49:49.288Z,15.50
2019-04-30T16:52:21.464Z,15.50
2019-04-30T16:54:55.838Z,15.60
2019-04-30T16:57:30.355Z,15.50
2019-04-30T17:00:03.132Z,15.50
2019-04-30T17:02:36.919Z,15.50
2019-04-30T17:05:11.251Z,15.50
2019-04-30T17:07:50.619Z,15.50
2019-04-30T17:10:29.285Z,15.50
2019-04-30T17:13:09.183Z,15.50
2019-04-30T17:15:41.471Z,15.40
2019-04-30T17:18:15.024Z,15.40
2019-04-30T17:20:49.628Z,15.30
2019-04-30T17:23:24.803Z,15.30
2019-04-30T17:25:58.366Z,15.30
2019-04-30T17:28:32.229Z,15.30
2019-04-30T17:31:05.796Z,15.30
2019-04-30T17:33:40.283Z,15.20
2019-04-30T17:36:14.713Z,15.20
2019-04-30T17:38:48.455Z,15.20
2019-04-30T17:41:23.146Z,15.20
2019-04-30T17:43:58.862Z,15.10
2019-04-30T17:46:31.689Z,15.00
2019-04-30T17:49:06.694Z,14.90
2019-04-30T17:51:40.441Z,14.90
2019-04-30T17:54:14.075Z,14.90
2019-04-30T17:56:48.580Z,14.70
2019-04-30T17:59:24.535Z,14.70
2019-04-30T18:01:59.616Z,14.70
2019-04-30T18:04:33.161Z,14.60
2019-04-30T18:07:06.735Z,14.60
2019-04-30T18:09:40.640Z,14.50
2019-04-30T18:12:14.333Z,14.40
2019-04-30T18:14:49.738Z,14.30
2019-04-30T18:17:25.268Z,14.30
2019-04-30T18:19:59.895Z,14.20
2019-04-30T18:22:34.314Z,14.00
2019-04-30T18:25:12.822Z,13.90
2019-04-30T18:27:49.459Z,13.90
2019-04-30T18:30:25.567Z,13.80
2019-04-30T18:32:59.975Z,13.50
2019-04-30T18:35:33.809Z,13.50
2019-04-30T18:38:07.335Z,13.40
2019-04-30T18:40:41.566Z,13.30
2019-04-30T18:43:15.230Z,13.20
2019-04-30T18:45:49.499Z,13.10
2019-04-30T18:48:23.506Z,12.90
2019-04-30T18:50:58.438Z,12.90
2019-04-30T18:53:32.199Z,12.80
2019-04-30T18:56:09.948Z,12.70
2019-04-30T18:58:42.922Z,12.70
2019-04-30T19:01:14.236Z,12.60
2019-04-30T19:03:49.225Z,12.50
2019-04-30T19:06:25.919Z,12.50
2019-04-30T19:09:02.192Z,12.40
2019-04-30T19:11:36.711Z,12.30
2019-04-30T19:14:26.223Z,12.30
2019-04-30T19:17:05.503Z,12.30
2019-04-30T19:19:41.701Z,12.30
2019-04-30T19:22:16.173Z,12.20
2019-04-30T19:24:56.071Z,12.20
2019-04-30T19:27:23.513Z,12.20
2019-04-30T19:29:59.388Z,12.20
2019-04-30T19:32:31.503Z,12.10
2019-04-30T19:35:05.207Z,12.10
2019-04-30T19:37:40.338Z,12.10
2019-04-30T19:40:12.387Z,12.20
2019-04-30T19:42:48.331Z,12.20
2019-04-30T19:45:19.802Z,12.20
2019-04-30T19:47:54.285Z,12.20
2019-04-30T19:50:28.285Z,12.10
2019-04-30T19:53:02.358Z,12.10
2019-04-30T19:55:36.360Z,12.10
2019-04-30T19:58:14.498Z,12.00
2019-04-30T20:00:45.110Z,11.80
2019-04-30T20:03:19.771Z,11.90
2019-04-30T20:05:52.965Z,11.70
2019-04-30T20:08:28.593Z,11.60
2019-04-30T20:11:00.233Z,11.40
2019-04-30T20:13:37.196Z,11.40
2019-04-30T20:16:09.689Z,11.40
2019-04-30T20:18:42.780Z,11.40
2019-04-30T20:21:26.198Z,11.40
2019-04-30T20:23:52.629Z,11.40
2019-04-30T20:26:26.414Z,11.40
2019-04-30T20:29:00.028Z,11.40
2019-04-30T20:31:33.616Z,11.40
2019-04-30T20:34:09.220Z,11.30
2019-04-30T20:36:40.881Z,11.20
2019-04-30T20:39:18.241Z,11.10
2019-04-30T20:41:51.841Z,11.10
2019-04-30T20:44:25.643Z,11.00
2019-04-30T20:46:59.350Z,10.90
2019-04-30T20:49:33.040Z,10.90
2019-04-30T20:52:06.768Z,10.80
2019-04-30T20:54:40.449Z,10.60
2019-04-30T20:57:14.132Z,10.60
2019-04-30T20:59:48.759Z,10.50
2019-04-30T21:02:21.411Z,10.50
2019-04-30T21:04:55.192Z,10.50
2019-04-30T21:07:28.828Z,10.50
2019-04-30T21:10:02.465Z,10.40
2019-04-30T21:12:36.988Z,10.30
2019-04-30T21:15:10.681Z,10.30
2019-04-30T21:17:44.992Z,10.20
2019-04-30T21:20:19.411Z,10.20
2019-04-30T21:22:53.019Z,10.20
2019-04-30T21:25:28.961Z,10.20
2019-04-30T21:28:00.316Z,10.30
2019-04-30T21:30:33.921Z,10.30
2019-04-30T21:33:10.879Z,10.10
2019-04-30T21:35:44.557Z,10.10
2019-04-30T21:38:19.379Z,10.00
2019-04-30T21:40:51.858Z,10.00
2019-04-30T21:43:25.416Z,9.90
2019-04-30T21:46:00.082Z,9.80
2019-04-30T21:48:33.754Z,9.80
2019-04-30T21:51:09.398Z,9.80
2019-04-30T21:53:42.066Z,9.80
2019-04-30T21:56:16.493Z,9.80
2019-04-30T21:58:50.093Z,9.80
2019-04-30T22:01:23.845Z,9.80
2019-04-30T22:03:57.596Z,9.70
2019-04-30T22:06:31.295Z,9.60
2019-04-30T22:09:05.732Z,9.60
2019-04-30T22:11:39.588Z,9.50
2019-04-30T22:14:12.890Z,9.60
2019-04-30T22:16:46.524Z,9.50
2019-04-30T22:19:20.069Z,9.50
2019-04-30T22:21:54.567Z,9.30
2019-04-30T22:24:28.304Z,9.30
2019-04-30T22:27:02.483Z,9.30
2019-04-30T22:29:39.309Z,9.20
2019-04-30T22:32:10.245Z,9.30
2019-04-30T22:34:43.959Z,9.20
2019-04-30T22:37:19.113Z,9.20
2019-04-30T22:40:01.453Z,9.20
2019-04-30T22:42:35.852Z,9.20
2019-04-30T22:45:09.602Z,9.10
2019-04-30T22:47:43.254Z,9.10
2019-04-30T22:50:17.783Z,9.10
2019-04-30T22:52:51.464Z,9.10
2019-04-30T22:55:25.255Z,9.10
2019-04-30T22:57:59.072Z,9.10
2019-04-30T23:00:34.393Z,9.00
2019-04-30T23:03:09.583Z,8.80
2019-04-30T23:05:43.319Z,8.80
2019-04-30T23:08:17.011Z,8.90
2019-04-30T23:10:50.594Z,8.90
2019-04-30T23:13:24.197Z,8.90
2019-04-30T23:15:57.903Z,8.80
2019-04-30T23:18:32.250Z,8.80
2019-04-30T23:21:05.440Z,8.70
2019-04-30T23:23:39.152Z,8.60
2019-04-30T23:26:13.005Z,8.60
2019-04-30T23:28:46.774Z,8.60
2019-04-30T23:31:21.234Z,8.60
2019-04-30T23:33:55.012Z,8.50
2019-04-30T23:36:29.469Z,8.40
2019-04-30T23:39:03.030Z,8.40
2019-04-30T23:41:36.695Z,8.40
2019-04-30T23:44:10.477Z,8.30
2019-04-30T23:46:44.792Z,8.30
2019-04-30T23:49:19.149Z,8.30
2019-04-30T23:51:52.795Z,8.30
2019-04-30T23:54:26.622Z,8.30
2019-04-30T23:57:00.256Z,8.30
2019-04-30T23:59:34.017Z,8.30
